createdAt,value
2018-08-12T00:00:36.421Z,2.70
2018-08-12T00:03:14.587Z,2.60
2018-08-12T00:05:52.083Z,2.03
2018-08-12T00:08:27.936Z,2.40
2018-08-12T00:11:05.294Z,2.50
2018-08-12T00:13:41.089Z,2.50
2018-08-12T00:16:18.620Z,2.67
2018-08-12T00:18:54.834Z,2.83
2018-08-12T00:21:32.902Z,2.87
2018-08-12T00:24:09.624Z,2.40
2018-08-12T00:26:45.413Z,2.60
2018-08-12T00:29:22.001Z,2.50
2018-08-12T00:31:59.081Z,2.40
2018-08-12T00:34:36.408Z,2.47
2018-08-12T00:37:13.206Z,2.70
2018-08-12T00:39:48.832Z,2.40
2018-08-12T00:42:25.621Z,2.47
2018-08-12T00:45:02.592Z,2.70
2018-08-12T00:47:39.562Z,2.37
2018-08-12T00:50:16.755Z,2.07
2018-08-12T00:52:59.569Z,2.50
2018-08-12T00:55:36.444Z,2.67
2018-08-12T00:58:13.785Z,2.77
2018-08-12T01:00:49.864Z,2.10
2018-08-12T01:03:27.181Z,2.10
2018-08-12T01:06:04.069Z,2.30
2018-08-12T01:08:40.613Z,2.27
2018-08-12T01:11:17.061Z,2.43
2018-08-12T01:13:54.359Z,2.27
2018-08-12T01:16:31.155Z,2.30
2018-08-12T01:19:07.666Z,2.50
2018-08-12T01:21:44.975Z,2.60
2018-08-12T01:24:22.236Z,2.43
2018-08-12T01:26:58.633Z,2.70
2018-08-12T01:29:35.289Z,2.50
2018-08-12T01:32:12.258Z,2.43
2018-08-12T01:34:50.043Z,2.50
2018-08-12T01:37:27.157Z,2.30
2018-08-12T01:40:06.697Z,2.50
2018-08-12T01:42:44.392Z,2.40
2018-08-12T01:45:21.421Z,2.57
2018-08-12T01:47:57.748Z,2.50
2018-08-12T01:50:35.739Z,2.23
2018-08-12T01:53:12.361Z,2.47
2018-08-12T01:55:48.359Z,2.67
2018-08-12T01:58:26.419Z,2.83
2018-08-12T02:01:03.626Z,3.30
2018-08-12T02:03:41.225Z,2.90
2018-08-12T02:06:18.164Z,3.27
2018-08-12T02:08:54.545Z,3.23
2018-08-12T02:11:31.177Z,3.47
2018-08-12T02:14:08.522Z,3.40
2018-08-12T02:16:45.135Z,3.10
2018-08-12T02:19:22.878Z,3.07
2018-08-12T02:21:59.180Z,3.20
2018-08-12T02:24:37.890Z,3.30
2018-08-12T02:27:14.543Z,3.10
2018-08-12T02:29:52.192Z,3.30
2018-08-12T02:32:29.662Z,3.40
2018-08-12T02:35:08.234Z,3.40
2018-08-12T02:37:44.528Z,3.60
2018-08-12T02:40:21.995Z,3.07
2018-08-12T02:42:57.974Z,3.20
2018-08-12T02:45:34.603Z,3.23
2018-08-12T02:48:12.068Z,3.73
2018-08-12T02:50:48.371Z,3.40
2018-08-12T02:53:24.685Z,3.27
2018-08-12T02:56:01.872Z,3.23
2018-08-12T02:58:38.950Z,3.30
2018-08-12T03:01:16.073Z,2.90
2018-08-12T03:03:52.174Z,3.53
2018-08-12T03:06:29.637Z,3.30
2018-08-12T03:09:10.201Z,3.37
2018-08-12T03:11:46.625Z,3.58
2018-08-12T03:14:24.221Z,3.15
2018-08-12T03:17:01.189Z,3.40
2018-08-12T03:19:38.210Z,3.17
2018-08-12T03:22:14.849Z,3.50
2018-08-12T03:24:51.566Z,3.60
2018-08-12T03:27:28.580Z,3.57
2018-08-12T03:30:07.213Z,3.72
2018-08-12T03:32:45.580Z,3.17
2018-08-12T03:35:22.301Z,3.05
2018-08-12T03:38:00.417Z,3.62
2018-08-12T03:40:39.343Z,3.42
2018-08-12T03:43:16.225Z,3.22
2018-08-12T03:45:52.589Z,3.67
2018-08-12T03:48:31.372Z,3.25
2018-08-12T03:51:09.611Z,3.15
2018-08-12T03:53:46.232Z,3.20
2018-08-12T03:56:23.320Z,3.00
2018-08-12T03:59:00.317Z,3.22
2018-08-12T04:01:37.167Z,3.40
2018-08-12T04:04:13.943Z,3.80
2018-08-12T04:06:51.955Z,3.12
2018-08-12T04:09:29.726Z,3.98
2018-08-12T04:12:06.285Z,3.65
2018-08-12T04:14:42.916Z,4.07
2018-08-12T04:17:20.964Z,3.50
2018-08-12T04:19:58.647Z,3.65
2018-08-12T04:22:37.332Z,3.30
2018-08-12T04:25:14.837Z,3.50
2018-08-12T04:27:51.713Z,3.62
2018-08-12T04:30:28.723Z,3.20
2018-08-12T04:33:05.507Z,3.60
2018-08-12T04:35:43.681Z,3.37
2018-08-12T04:38:20.517Z,3.10
2018-08-12T04:40:57.364Z,3.47
2018-08-12T04:43:34.040Z,3.65
2018-08-12T04:46:11.105Z,2.90
2018-08-12T04:48:49.386Z,3.20
2018-08-12T04:51:27.129Z,2.90
2018-08-12T04:54:03.828Z,2.90
2018-08-12T04:56:40.672Z,3.07
2018-08-12T04:59:18.277Z,3.73
2018-08-12T05:01:56.104Z,3.10
2018-08-12T05:04:33.802Z,3.50
2018-08-12T05:07:12.797Z,3.43
2018-08-12T05:09:50.685Z,2.90
2018-08-12T05:12:29.040Z,3.07
2018-08-12T05:15:07.861Z,3.43
2018-08-12T05:17:44.777Z,3.23
2018-08-12T05:20:21.474Z,2.53
2018-08-12T05:22:58.806Z,3.23
2018-08-12T05:25:36.991Z,3.03
2018-08-12T05:28:16.659Z,3.53
2018-08-12T05:30:54.589Z,3.50
2018-08-12T05:33:31.199Z,2.83
2018-08-12T05:36:07.429Z,2.90
2018-08-12T05:38:44.924Z,3.17
2018-08-12T05:41:21.382Z,2.80
2018-08-12T05:43:57.716Z,3.03
2018-08-12T05:46:34.965Z,2.90
2018-08-12T05:49:12.778Z,2.90
2018-08-12T05:51:49.086Z,2.83
2018-08-12T05:54:26.125Z,2.70
2018-08-12T05:57:03.498Z,3.40
2018-08-12T05:59:41.957Z,2.47
2018-08-12T06:02:18.602Z,2.60
2018-08-12T06:04:54.993Z,2.70
2018-08-12T06:07:31.318Z,2.90
2018-08-12T06:10:10.363Z,2.80
2018-08-12T06:12:46.639Z,2.70
2018-08-12T06:15:22.397Z,2.40
2018-08-12T06:17:59.925Z,2.60
2018-08-12T06:20:37.379Z,2.73
2018-08-12T06:23:14.119Z,2.80
2018-08-12T06:25:51.005Z,2.73
2018-08-12T06:28:27.765Z,2.80
2018-08-12T06:31:04.580Z,2.83
2018-08-12T06:33:40.401Z,2.30
2018-08-12T06:36:17.970Z,2.30
2018-08-12T06:38:56.719Z,2.33
2018-08-12T06:41:33.906Z,2.60
2018-08-12T06:44:10.679Z,2.20
2018-08-12T06:46:48.676Z,2.50
2018-08-12T06:49:27.754Z,3.00
2018-08-12T06:52:05.929Z,2.63
2018-08-12T06:54:43.731Z,2.67
2018-08-12T06:57:19.976Z,2.93
2018-08-12T06:59:58.711Z,2.40
2018-08-12T07:02:36.607Z,2.17
2018-08-12T07:05:14.114Z,2.47
2018-08-12T07:07:51.211Z,2.50
2018-08-12T07:10:29.600Z,2.50
2018-08-12T07:13:07.367Z,2.50
2018-08-12T07:15:44.964Z,2.70
2018-08-12T07:18:21.559Z,2.47
2018-08-12T07:20:59.848Z,2.60
2018-08-12T07:23:37.601Z,2.40
2018-08-12T07:26:15.174Z,2.70
2018-08-12T07:28:52.401Z,2.70
2018-08-12T07:31:29.737Z,2.57
2018-08-12T07:34:06.406Z,2.50
2018-08-12T07:36:43.065Z,2.70
2018-08-12T07:39:20.333Z,2.40
2018-08-12T07:41:59.626Z,2.33
2018-08-12T07:44:35.925Z,2.30
2018-08-12T07:47:13.457Z,2.60
2018-08-12T07:49:50.588Z,1.90
2018-08-12T07:52:27.849Z,2.10
2018-08-12T07:55:06.961Z,2.17
2018-08-12T07:57:44.678Z,2.10
2018-08-12T08:00:21.120Z,1.80
2018-08-12T08:02:59.721Z,2.43
2018-08-12T08:05:36.489Z,2.20
2018-08-12T08:08:13.534Z,2.30
2018-08-12T08:10:50.832Z,2.00
2018-08-12T08:13:28.650Z,1.70
2018-08-12T08:16:05.118Z,1.60
2018-08-12T08:18:43.056Z,2.10
2018-08-12T08:21:19.491Z,1.90
2018-08-12T08:23:57.744Z,1.67
2018-08-12T08:26:33.832Z,1.87
2018-08-12T08:29:12.231Z,1.90
2018-08-12T08:31:48.528Z,1.77
2018-08-12T08:34:25.010Z,1.37
2018-08-12T08:37:02.570Z,1.70
2018-08-12T08:39:40.544Z,1.87
2018-08-12T08:42:18.563Z,1.57
2018-08-12T08:44:55.683Z,1.90
2018-08-12T08:47:34.072Z,1.80
2018-08-12T08:50:10.651Z,1.30
2018-08-12T08:52:48.368Z,1.63
2018-08-12T08:55:25.587Z,1.53
2018-08-12T08:58:02.509Z,1.40
2018-08-12T09:00:38.803Z,1.40
2018-08-12T09:03:15.132Z,1.27
2018-08-12T09:05:54.572Z,1.43
2018-08-12T09:08:32.745Z,1.30
2018-08-12T09:11:10.321Z,1.30
2018-08-12T09:13:46.682Z,1.30
2018-08-12T09:16:23.362Z,1.13
2018-08-12T09:19:00.515Z,1.20
2018-08-12T09:21:38.584Z,1.33
2018-08-12T09:24:15.246Z,1.20
2018-08-12T09:26:52.259Z,1.30
2018-08-12T09:29:29.816Z,1.10
2018-08-12T09:32:06.465Z,1.30
2018-08-12T09:34:43.227Z,1.10
2018-08-12T09:37:21.554Z,1.30
2018-08-12T09:39:58.146Z,1.00
2018-08-12T09:42:36.547Z,1.10
2018-08-12T09:45:15.974Z,1.00
2018-08-12T09:47:53.549Z,1.03
2018-08-12T09:50:30.634Z,1.33
2018-08-12T09:53:09.680Z,1.20
2018-08-12T09:55:47.214Z,1.07
2018-08-12T09:58:23.074Z,1.10
2018-08-12T10:01:01.887Z,1.00
2018-08-12T10:03:39.671Z,0.90
2018-08-12T10:06:16.766Z,1.00
2018-08-12T10:08:53.898Z,1.27
2018-08-12T10:11:31.035Z,1.40
2018-08-12T10:14:07.675Z,1.30
2018-08-12T10:16:44.590Z,1.30
2018-08-12T10:19:21.810Z,1.40
2018-08-12T10:21:58.403Z,1.17
2018-08-12T10:24:36.555Z,1.30
2018-08-12T10:27:14.362Z,1.00
2018-08-12T10:29:51.714Z,1.00
2018-08-12T10:32:29.243Z,1.30
2018-08-12T10:35:07.338Z,1.23
2018-08-12T10:37:44.955Z,1.20
2018-08-12T10:40:22.503Z,1.40
2018-08-12T10:43:00.255Z,1.27
2018-08-12T10:45:37.528Z,1.37
2018-08-12T10:48:15.593Z,1.40
2018-08-12T10:50:53.526Z,1.40
2018-08-12T10:53:30.681Z,1.10
2018-08-12T10:56:08.183Z,1.20
2018-08-12T10:58:45.230Z,1.30
2018-08-12T11:01:22.035Z,1.40
2018-08-12T11:03:59.348Z,1.37
2018-08-12T11:06:37.013Z,1.37
2018-08-12T11:09:13.686Z,1.20
2018-08-12T11:11:50.513Z,1.27
2018-08-12T11:14:27.753Z,1.30
2018-08-12T11:17:05.123Z,1.33
2018-08-12T11:19:42.657Z,1.30
2018-08-12T11:22:20.716Z,1.43
2018-08-12T11:24:58.831Z,1.47
2018-08-12T11:27:37.446Z,1.20
2018-08-12T11:30:16.808Z,1.30
2018-08-12T11:32:54.110Z,1.40
2018-08-12T11:35:32.389Z,1.30
2018-08-12T11:38:10.125Z,1.73
2018-08-12T11:40:46.975Z,1.20
2018-08-12T11:43:24.749Z,1.80
2018-08-12T11:46:02.492Z,1.47
2018-08-12T11:48:41.494Z,1.27
2018-08-12T11:51:19.302Z,1.40
2018-08-12T11:53:55.557Z,1.00
2018-08-12T11:56:32.336Z,1.23
2018-08-12T11:59:11.934Z,1.30
2018-08-12T12:01:51.822Z,1.47
2018-08-12T12:04:30.506Z,1.20
2018-08-12T12:07:09.345Z,1.33
2018-08-12T12:09:46.436Z,1.30
2018-08-12T12:12:23.551Z,1.10
2018-08-12T12:15:01.753Z,1.40
2018-08-12T12:17:39.193Z,1.33
2018-08-12T12:20:17.244Z,1.37
2018-08-12T12:22:54.441Z,1.30
2018-08-12T12:25:32.868Z,1.20
2018-08-12T12:28:10.244Z,1.10
2018-08-12T12:30:48.128Z,1.40
2018-08-12T12:33:24.761Z,1.30
2018-08-12T12:36:01.657Z,1.23
2018-08-12T12:38:39.563Z,1.23
2018-08-12T12:41:16.663Z,1.90
2018-08-12T12:43:54.410Z,1.30
2018-08-12T12:46:33.126Z,1.20
2018-08-12T12:49:10.992Z,1.17
2018-08-12T12:51:49.500Z,1.43
2018-08-12T12:54:27.223Z,1.23
2018-08-12T12:57:05.580Z,1.23
2018-08-12T12:59:45.122Z,0.90
2018-08-12T13:02:21.373Z,1.63
2018-08-12T13:04:59.826Z,0.90
2018-08-12T13:07:37.678Z,1.20
2018-08-12T13:10:15.819Z,1.40
2018-08-12T13:12:52.368Z,1.63
2018-08-12T13:15:30.270Z,0.93
2018-08-12T13:18:09.146Z,1.13
2018-08-12T13:20:45.378Z,1.20
2018-08-12T13:23:23.292Z,1.20
2018-08-12T13:25:59.833Z,1.13
2018-08-12T13:28:38.021Z,1.20
2018-08-12T13:31:15.815Z,1.30
2018-08-12T13:33:53.189Z,1.20
2018-08-12T13:36:32.392Z,1.20
2018-08-12T13:39:11.852Z,1.20
2018-08-12T13:41:49.915Z,1.13
2018-08-12T13:44:27.869Z,1.40
2018-08-12T13:47:05.229Z,1.47
2018-08-12T13:49:42.006Z,1.10
2018-08-12T13:52:19.045Z,1.33
2018-08-12T13:54:56.119Z,1.37
2018-08-12T13:57:33.030Z,1.10
2018-08-12T14:00:15.716Z,2.07
2018-08-12T14:02:51.647Z,1.40
2018-08-12T14:05:31.245Z,1.30
2018-08-12T14:08:08.564Z,1.10
2018-08-12T14:10:51.617Z,1.27
2018-08-12T14:13:30.394Z,1.17
2018-08-12T14:16:08.409Z,1.10
2018-08-12T14:18:46.234Z,1.30
2018-08-12T14:21:22.623Z,0.80
2018-08-12T14:23:59.711Z,1.63
2018-08-12T14:26:37.540Z,1.10
2018-08-12T14:29:14.899Z,1.30
2018-08-12T14:31:54.554Z,1.37
2018-08-12T14:34:30.861Z,1.30
2018-08-12T14:37:08.574Z,3.20
2018-08-12T14:39:46.012Z,1.40
2018-08-12T14:42:22.062Z,1.30
2018-08-12T14:44:58.633Z,1.30
2018-08-12T14:50:19.820Z,1.30
2018-08-12T14:52:55.655Z,1.30
2018-08-12T14:55:35.149Z,1.30
2018-08-12T14:58:13.368Z,1.20
2018-08-12T15:00:50.282Z,1.80
2018-08-12T15:03:27.860Z,1.33
2018-08-12T15:06:05.061Z,1.30
2018-08-12T15:08:43.424Z,1.43
2018-08-12T15:11:20.132Z,1.47
2018-08-12T15:13:57.963Z,1.57
2018-08-12T15:16:35.302Z,1.27
2018-08-12T15:19:12.593Z,1.27
2018-08-12T15:21:50.103Z,1.10
2018-08-12T15:24:28.425Z,1.27
2018-08-12T15:27:04.809Z,1.33
2018-08-12T15:29:42.083Z,1.10
2018-08-12T15:32:19.417Z,1.30
2018-08-12T15:34:57.469Z,1.30
2018-08-12T15:37:35.461Z,1.30
2018-08-12T15:40:15.552Z,1.13
2018-08-12T15:42:51.781Z,1.97
2018-08-12T15:45:28.116Z,1.27
2018-08-12T15:48:05.166Z,1.50
2018-08-12T15:50:42.885Z,1.40
2018-08-12T15:53:20.298Z,1.40
2018-08-12T15:55:58.503Z,1.60
2018-08-12T15:58:36.437Z,2.10
2018-08-12T16:01:13.982Z,1.30
2018-08-12T16:03:49.543Z,1.43
2018-08-12T16:06:25.639Z,1.47
2018-08-12T16:09:02.247Z,2.17
2018-08-12T16:11:40.180Z,1.63
2018-08-12T16:14:18.723Z,1.50
2018-08-12T16:16:55.704Z,1.50
2018-08-12T16:19:32.924Z,1.67
2018-08-12T16:22:10.100Z,1.30
2018-08-12T16:24:46.940Z,1.73
2018-08-12T16:27:23.245Z,2.80
2018-08-12T16:30:01.047Z,3.13
2018-08-12T16:32:37.614Z,1.70
2018-08-12T16:35:15.152Z,2.47
2018-08-12T16:37:52.096Z,1.10
2018-08-12T16:40:28.162Z,1.20
2018-08-12T16:43:04.478Z,1.40
2018-08-12T16:45:40.821Z,1.60
2018-08-12T16:48:17.235Z,1.40
2018-08-12T16:50:54.258Z,1.90
2018-08-12T16:53:30.252Z,1.70
2018-08-12T16:56:07.284Z,1.50
2018-08-12T16:58:43.954Z,2.00
2018-08-12T17:01:20.638Z,1.47
2018-08-12T17:03:56.939Z,1.50
2018-08-12T17:06:33.701Z,1.20
2018-08-12T17:09:13.013Z,1.40
2018-08-12T17:11:49.421Z,1.73
2018-08-12T17:14:26.233Z,1.60
2018-08-12T17:17:02.841Z,2.20
2018-08-12T17:19:40.740Z,1.70
2018-08-12T17:22:17.038Z,1.63
2018-08-12T17:24:54.660Z,1.77
2018-08-12T17:27:31.785Z,1.97
2018-08-12T17:30:12.118Z,6.97
2018-08-12T17:32:49.916Z,2.67
2018-08-12T17:35:25.793Z,2.53
2018-08-12T17:38:04.656Z,2.23
2018-08-12T17:40:40.910Z,2.80
2018-08-12T17:43:17.684Z,3.07
2018-08-12T17:45:56.056Z,2.67
2018-08-12T17:48:33.245Z,3.10
2018-08-12T17:51:10.014Z,3.10
2018-08-12T17:53:47.576Z,3.00
2018-08-12T17:56:24.569Z,2.70
2018-08-12T17:59:02.914Z,1.93
2018-08-12T18:01:40.543Z,2.47
2018-08-12T18:04:18.699Z,2.80
2018-08-12T18:06:55.892Z,3.47
2018-08-12T18:09:32.297Z,3.67
2018-08-12T18:12:08.898Z,3.80
2018-08-12T18:14:46.435Z,3.50
2018-08-12T18:17:23.460Z,5.37
2018-08-12T18:20:01.331Z,3.57
2018-08-12T18:22:39.625Z,2.80
2018-08-12T18:25:16.257Z,2.90
2018-08-12T18:27:54.173Z,2.63
2018-08-12T18:30:30.533Z,2.93
2018-08-12T18:33:07.272Z,2.63
2018-08-12T18:35:45.769Z,3.47
2018-08-12T18:38:23.994Z,3.43
2018-08-12T18:41:01.549Z,2.90
2018-08-12T18:43:38.420Z,3.30
2018-08-12T18:46:16.741Z,3.30
2018-08-12T18:48:54.017Z,3.20
2018-08-12T18:51:32.324Z,4.73
2018-08-12T18:54:08.406Z,3.70
2018-08-12T18:56:46.785Z,4.03
2018-08-12T18:59:24.009Z,4.77
2018-08-12T19:02:02.238Z,3.70
2018-08-12T19:04:39.085Z,4.63
2018-08-12T19:07:16.554Z,4.57
2018-08-12T19:09:53.283Z,4.40
2018-08-12T19:12:31.147Z,4.23
2018-08-12T19:15:10.229Z,4.00
2018-08-12T19:17:47.816Z,4.33
2018-08-12T19:20:23.748Z,4.17
2018-08-12T19:23:01.360Z,3.67
2018-08-12T19:25:37.537Z,3.40
2018-08-12T19:28:14.870Z,3.70
2018-08-12T19:30:52.129Z,3.10
2018-08-12T19:33:43.374Z,3.03
2018-08-12T19:36:21.222Z,3.40
2018-08-12T19:38:57.737Z,3.57
2018-08-12T19:41:35.080Z,4.40
2018-08-12T19:44:12.033Z,3.33
2018-08-12T19:46:50.072Z,3.17
2018-08-12T19:49:26.669Z,3.47
2018-08-12T19:52:04.289Z,3.57
2018-08-12T19:54:42.324Z,3.57
2018-08-12T19:57:21.005Z,3.37
2018-08-12T19:59:58.691Z,3.43
2018-08-12T20:02:35.728Z,3.53
2018-08-12T20:05:12.499Z,4.10
2018-08-12T20:07:49.028Z,3.77
2018-08-12T20:10:25.088Z,4.30
2018-08-12T20:13:02.077Z,4.03
2018-08-12T20:15:39.580Z,3.37
2018-08-12T20:18:16.457Z,4.13
2018-08-12T20:20:53.172Z,3.30
2018-08-12T20:23:32.202Z,3.17
2018-08-12T20:26:09.563Z,3.67
2018-08-12T20:28:47.495Z,2.50
2018-08-12T20:31:23.860Z,2.90
2018-08-12T20:34:01.074Z,2.70
2018-08-12T20:36:38.537Z,2.50
2018-08-12T20:39:17.244Z,2.80
2018-08-12T20:41:53.991Z,3.03
2018-08-12T20:44:30.075Z,3.47
2018-08-12T20:47:07.624Z,2.60
2018-08-12T20:49:45.932Z,2.53
2018-08-12T20:52:30.277Z,3.00
2018-08-12T20:55:09.392Z,2.20
2018-08-12T20:57:45.874Z,1.87
2018-08-12T21:00:23.847Z,2.13
2018-08-12T21:03:01.676Z,2.60
2018-08-12T21:05:37.733Z,2.50
2018-08-12T21:08:14.493Z,3.67
2018-08-12T21:10:51.121Z,3.37
2018-08-12T21:13:29.642Z,2.93
2018-08-12T21:16:06.217Z,2.73
2018-08-12T21:18:42.824Z,2.90
2018-08-12T21:21:19.748Z,3.13
2018-08-12T21:23:56.301Z,2.90
2018-08-12T21:26:32.810Z,3.67
2018-08-12T21:29:08.757Z,2.90
2018-08-12T21:31:46.319Z,3.80
2018-08-12T21:34:24.816Z,3.23
2018-08-12T21:37:02.663Z,2.83
2018-08-12T21:39:39.244Z,3.40
2018-08-12T21:42:17.651Z,2.70
2018-08-12T21:44:56.330Z,2.57
2018-08-12T21:47:34.026Z,2.73
2018-08-12T21:50:11.660Z,2.80
2018-08-12T21:52:48.144Z,2.80
2018-08-12T21:55:24.983Z,3.10
2018-08-12T21:58:02.018Z,2.57
2018-08-12T22:00:39.475Z,2.77
2018-08-12T22:03:17.022Z,3.13
2018-08-12T22:05:55.824Z,3.53
2018-08-12T22:08:33.510Z,2.93
2018-08-12T22:11:09.938Z,2.57
2018-08-12T22:13:46.254Z,2.70
2018-08-12T22:16:24.017Z,2.40
2018-08-12T22:19:00.589Z,2.53
2018-08-12T22:21:38.061Z,2.80
2018-08-12T22:24:15.536Z,3.23
2018-08-12T22:26:52.997Z,3.30
2018-08-12T22:29:31.681Z,3.60
2018-08-12T22:32:09.547Z,2.70
2018-08-12T22:34:47.668Z,2.60
2018-08-12T22:37:24.978Z,2.67
2018-08-12T22:40:02.043Z,2.83
2018-08-12T22:42:38.473Z,2.63
2018-08-12T22:45:15.057Z,2.77
2018-08-12T22:47:51.756Z,3.20
2018-08-12T22:50:30.287Z,2.83
2018-08-12T22:53:08.149Z,2.90
2018-08-12T22:55:45.806Z,2.50
2018-08-12T22:58:23.136Z,3.07
2018-08-12T23:00:58.853Z,2.67
2018-08-12T23:03:38.654Z,3.00
2018-08-12T23:06:20.648Z,2.90
2018-08-12T23:08:58.533Z,2.90
2018-08-12T23:11:35.974Z,2.77
2018-08-12T23:14:13.224Z,2.70
2018-08-12T23:16:59.866Z,3.27
2018-08-12T23:19:36.675Z,3.20
2018-08-12T23:22:14.243Z,3.00
2018-08-12T23:24:51.425Z,2.77
2018-08-12T23:27:28.061Z,2.93
2018-08-12T23:30:05.226Z,2.50
2018-08-12T23:32:41.881Z,2.90
2018-08-12T23:35:18.653Z,2.57
2018-08-12T23:37:57.106Z,2.60
2018-08-12T23:40:33.553Z,2.63
2018-08-12T23:43:11.126Z,2.70
2018-08-12T23:45:48.889Z,2.97
2018-08-12T23:48:25.537Z,2.60
2018-08-12T23:51:02.858Z,3.10
2018-08-12T23:53:43.904Z,2.70
2018-08-12T23:56:19.589Z,2.73
2018-08-12T23:58:56.822Z,2.40
